Latest Weather Observations for Lockhart River

IDQ60801

Issued at 11:05 am EST Monday 24 November 2014 (issued every 30 minutes, with the page automatically refreshed every 10 minutes)

About weather observations | Map of weather stations | Latest weather observations for QLD | Other Formats
Station Details ID: 028008 Name: LOCKHART RIVER AIRPORT Lat: -12.79 Lon: 143.30 Height: 18.5 m
Data from the previous 72 hours. | See also: Recent months at Lockhart River
Date/Time
EST
Temp
°C
App
Temp
°C
Dew
Point
Rel
Hum
%
Delta-T
°C
Wind Press
QNH
hPa
Press
MSL
hPa
Rain
since 9 am
mm
Dir
 
Spd
km/h
Gust
km/h
Spd
kts
Gust
kts
24/11:00am 30.1 30.4 22.3 63 5.3 E 24 43 13 23 1011.7 - 0.0
24/10:30am 30.2 30.8 21.0 58 6.1 E 19 30 10 16 1011.7 - 0.0
24/10:00am 30.4 30.8 21.8 60 5.8 E 22 37 12 20 1012.0 - 0.0
24/09:30am 29.7 30.2 21.9 63 5.3 E 22 35 12 19 1012.1 - 0.0
24/09:00am 30.0 30.9 21.9 62 5.5 ESE 20 32 11 17 1012.1 1012.0 0.0
24/08:30am 28.3 29.0 21.6 67 4.5 ESE 20 35 11 19 1012.2 - 0.0
24/08:00am 29.1 30.4 22.3 66 4.6 ESE 19 28 10 15 1011.8 - 0.0
24/07:30am 28.0 29.9 22.0 70 4.0 SE 15 30 8 16 1011.4 - 0.0
24/07:00am 26.7 30.0 22.5 78 2.8 SSE 9 15 5 8 1011.1 - 0.0
24/06:30am 25.8 29.1 22.5 82 2.2 SSE 9 11 5 6 1010.6 - 0.0
24/06:00am 25.4 28.2 22.3 83 2.1 SSE 11 15 6 8 1010.2 1010.1 0.0
24/05:30am 25.7 28.4 22.2 81 2.3 SSE 11 15 6 8 1010.0 - 0.0
24/05:00am 26.2 28.2 22.3 79 2.6 ESE 15 20 8 11 1009.9 - 0.0
24/04:30am 26.3 28.0 22.4 79 2.6 ESE 17 22 9 12 1009.8 - 0.0
24/04:00am 26.4 28.3 22.0 77 2.9 E 15 24 8 13 1009.9 - 0.0
24/03:30am 26.4 28.3 22.0 77 2.9 ESE 15 20 8 11 1010.1 - 0.0
24/03:00am 26.4 27.7 21.6 75 3.2 E 17 26 9 14 1009.8 1009.7 0.0
24/02:30am 26.5 28.3 21.9 76 3.1 E 15 24 8 13 1010.2 - 0.0
24/02:00am 26.5 28.3 21.9 76 3.1 E 15 24 8 13 1010.4 - 0.0
24/01:30am 26.5 28.1 22.1 77 3.0 ESE 17 26 9 14 1010.7 - 0.0
24/01:00am 26.6 28.4 21.8 75 3.2 E 15 26 8 14 1011.2 - 0.0
24/12:30am 26.7 28.4 22.3 77 3.0 ESE 17 24 9 13 1011.7 - 0.0
24/12:00am 26.7 29.0 22.1 76 3.1 E 13 19 7 10 1012.1 1012.0 0.0
 
Date/Time
EST
Temp
°C
App
Temp
°C
Dew
Point
Rel
Hum
%
Delta-T
°C
Wind Press
QNH
hPa
Press
MSL
hPa
Rain
since 9 am
mm
Dir
 
Spd
km/h
Gust
km/h
Spd
kts
Gust
kts
23/11:30pm 26.7 28.1 21.9 75 3.2 E 17 26 9 14 1012.4 - 0.0
23/11:00pm 26.8 28.5 22.4 77 3.0 ESE 17 24 9 13 1012.7 - 0.0
23/10:30pm 26.8 29.2 22.2 76 3.1 E 13 22 7 12 1012.6 - 0.0
23/10:00pm 26.9 28.6 22.3 76 3.1 E 17 24 9 13 1012.7 - 0.0
23/09:30pm 26.8 28.8 22.2 76 3.1 ESE 15 22 8 12 1012.5 - 0.0
23/09:00pm 26.7 29.1 22.3 77 3.0 ESE 13 20 7 11 1012.1 1012.0 0.0
23/08:30pm 26.7 28.7 22.3 77 3.0 SE 15 22 8 12 1011.9 - 0.0
23/08:00pm 26.7 28.7 22.3 77 3.0 ESE 15 20 8 11 1011.8 - 0.0
23/07:30pm 26.6 28.4 21.8 75 3.2 ESE 15 22 8 12 1011.4 - 0.0
23/07:00pm 26.9 28.9 21.6 72 3.5 ESE 13 17 7 9 1010.8 - 0.0
23/06:30pm 27.3 29.1 21.8 72 3.7 E 15 22 8 12 1010.8 - 0.0
23/06:00pm 28.0 29.2 21.5 67 4.3 E 17 22 9 12 1010.7 1010.6 0.0
23/05:30pm 28.6 29.8 21.4 65 4.8 E 17 26 9 14 1010.6 - 0.0
23/05:00pm 28.9 29.7 21.7 65 4.8 E 20 28 11 15 1010.5 - 0.0
23/04:30pm 29.5 30.0 22.0 64 5.1 E 22 32 12 17 1010.1 - 0.0
23/04:00pm 29.7 30.2 21.9 63 5.3 E 22 32 12 17 1010.1 - 0.0
23/03:30pm 30.2 30.8 22.1 62 5.5 E 22 30 12 16 1010.3 - 0.0
23/03:00pm 32.0 32.6 22.1 55 6.7 ESE 22 35 12 19 1010.5 1010.4 0.0
23/02:30pm 30.2 30.4 22.1 62 5.5 ESE 24 37 13 20 1010.8 - 0.0
23/02:00pm 30.2 30.4 22.1 62 5.5 E 24 35 13 19 1011.1 - 0.0
23/01:30pm 30.9 31.4 21.9 58 6.1 E 22 33 12 18 1011.4 - 0.0
23/01:00pm 30.7 31.1 21.8 59 6.0 E 22 35 12 19 1011.7 - 0.0
23/12:30pm 30.6 30.5 21.4 58 6.2 E 24 33 13 18 1012.1 - 0.0
23/12:00pm 31.1 31.4 21.6 57 6.4 E 22 35 12 19 1012.3 1012.2 0.0
23/11:30am 30.9 31.3 21.7 58 6.2 ESE 22 35 12 19 1012.6 - 0.0
23/11:00am 30.6 31.5 21.9 59 5.9 E 20 28 11 15 1013.0 - 0.0
23/10:30am 30.4 31.7 22.3 62 5.5 E 19 28 10 15 1013.4 - 0.0
23/10:00am 29.9 31.0 22.3 63 5.2 ESE 20 30 11 16 1013.6 - 0.0
23/09:30am 29.9 30.5 22.1 63 5.3 ESE 22 32 12 17 1013.6 - 0.0
23/09:00am 29.1 30.8 22.3 66 4.6 ESE 17 24 9 13 1013.7 - 0.0
23/08:30am 28.5 30.2 22.3 69 4.2 ESE 17 24 9 13 1013.7 - 0.0
23/08:11am 28.6 30.8 22.6 70 4.1 ESE 15 24 8 13 1013.7 - 0.0
23/08:00am 27.9 30.6 22.8 74 3.5 SE 13 20 7 11 1013.5 - 0.0
23/07:53am 27.4 30.2 23.0 77 3.0 SSE 13 19 7 10 1013.4 - 0.0
23/07:30am 27.1 30.5 22.7 77 3.0 SSE 9 15 5 8 1013.3 - 0.0
23/07:00am 25.6 29.3 22.5 83 2.1 SSE 7 13 4 7 1013.1 - 0.0
23/06:30am 24.3 29.4 22.6 90 1.1 CALM 0 0 0 0 1012.7 - 0.0
23/06:00am 23.4 28.0 21.8 91 1.1 CALM 0 0 0 0 1012.1 - 0.0
23/05:30am 23.5 28.1 21.8 90 1.1 CALM 0 0 0 0 1011.6 - 0.0
23/05:00am 24.2 29.1 22.3 89 1.3 CALM 0 0 0 0 1011.5 - 0.0
23/04:30am 24.5 29.3 22.2 87 1.5 CALM 0 0 0 0 1011.4 - 0.0
23/04:00am 24.9 29.1 22.4 86 1.7 SSW 4 9 2 5 1011.3 - 0.0
23/03:30am 25.6 28.9 22.5 83 2.1 S 9 13 5 7 1011.1 - 0.0
23/03:00am 26.2 28.6 22.3 79 2.6 ESE 13 19 7 10 1011.0 1010.9 0.0
23/02:30am 26.3 28.4 22.4 79 2.6 ESE 15 24 8 13 1011.0 - 0.0
23/02:22am 26.3 28.4 22.4 79 2.6 ESE 15 22 8 12 1010.8 - 0.0
23/02:00am 26.3 28.9 22.6 80 2.5 ESE 13 26 7 14 1010.9 - 0.0
23/01:30am 26.4 29.0 22.7 80 2.5 E 13 20 7 11 1010.9 - 0.0
23/01:29am 26.4 29.1 22.9 81 2.4 E 13 20 7 11 1010.9 - 0.0
23/01:20am 26.4 29.4 22.7 80 2.5 E 11 20 6 11 1010.9 - 0.0
23/01:00am 26.4 29.1 22.9 81 2.4 ESE 13 24 7 13 1011.1 - 0.0
23/12:40am 26.5 29.2 22.8 80 2.5 ESE 13 20 7 11 1011.3 - 0.0
23/12:39am 26.5 29.2 22.8 80 2.5 ESE 13 20 7 11 1011.3 - 0.0
23/12:30am 26.5 29.3 23.0 81 2.4 ESE 13 17 7 9 1011.5 - 0.0
23/12:00am 26.6 29.3 22.9 80 2.5 ESE 13 20 7 11 1012.0 1011.9 0.0
 
Date/Time
EST
Temp
°C
App
Temp
°C
Dew
Point
Rel
Hum
%
Delta-T
°C
Wind Press
QNH
hPa
Press
MSL
hPa
Rain
since 9 am
mm
Dir
 
Spd
km/h
Gust
km/h
Spd
kts
Gust
kts
22/11:30pm 26.6 29.0 22.9 80 2.5 ESE 15 22 8 12 1012.2 - 0.0
22/11:11pm 26.5 30.1 23.0 81 2.4 ESE 9 15 5 8 1012.3 - 0.0
22/11:05pm 26.5 29.7 23.0 81 2.4 ESE 11 17 6 9 1012.3 - 0.0
22/11:00pm 26.5 29.7 23.0 81 2.4 ESE 11 17 6 9 1012.3 - 0.0
22/10:30pm 26.0 29.5 22.9 83 2.1 SSE 9 11 5 6 1012.5 - 0.0
22/10:00pm 25.9 29.7 22.8 83 2.1 SSE 7 9 4 5 1012.4 - 0.0
22/09:53pm 25.9 29.7 22.8 83 2.1 SSE 7 9 4 5 1012.4 - 0.0
22/09:30pm 26.0 29.4 22.7 82 2.2 SE 9 13 5 7 1012.3 - 0.0
22/09:00pm 26.2 29.2 22.7 81 2.4 ESE 11 13 6 7 1012.2 1012.1 0.0
22/08:30pm 26.2 29.6 22.7 81 2.4 ESE 9 13 5 7 1011.8 - 0.0
22/08:00pm 26.4 28.9 22.5 79 2.6 ESE 13 17 7 9 1011.6 - 0.0
22/07:30pm 26.7 28.7 22.3 77 3.0 ESE 15 20 8 11 1011.4 - 0.0
22/07:00pm 26.9 28.5 22.1 75 3.2 ESE 17 20 9 11 1011.0 - 0.0
22/06:30pm 27.4 28.8 21.9 72 3.7 ESE 17 22 9 12 1010.3 - 0.0
22/06:00pm 28.1 29.0 21.6 68 4.4 ESE 19 26 10 14 1010.4 1010.3 0.0
22/05:30pm 28.8 29.7 21.6 65 4.8 ESE 19 28 10 15 1010.2 - 0.0
22/05:00pm 28.7 29.6 21.5 65 4.8 ESE 19 28 10 15 1010.0 - 0.0
22/04:30pm 29.4 30.5 21.9 64 5.1 ESE 19 28 10 15 1010.0 - 0.0
22/04:00pm 29.7 31.0 21.6 61 5.4 E 17 26 9 14 1009.9 - 0.0
22/03:30pm 30.1 30.9 21.7 60 5.7 E 20 28 11 15 1010.0 - 0.0
22/03:00pm 30.0 30.1 21.1 59 6.0 ESE 22 30 12 16 1010.4 1010.3 0.0
22/02:30pm 30.3 30.4 21.1 58 6.2 E 22 32 12 17 1010.6 - 0.0
22/02:00pm 30.6 31.2 21.4 58 6.2 ESE 20 30 11 16 1010.9 - 0.0
22/01:30pm 30.6 30.9 20.8 56 6.5 E 20 33 11 18 1011.2 - 0.0
22/01:00pm 30.6 30.1 21.4 58 6.2 SE 26 32 14 17 1011.5 - 0.0
22/12:30pm 30.9 31.0 21.1 56 6.6 E 22 33 12 18 1011.9 - 0.0
22/12:00pm 30.7 30.8 21.2 57 6.4 E 22 35 12 19 1012.2 1012.1 0.0
22/11:30am 30.2 30.8 21.3 59 6.0 E 20 35 11 19 1012.4 - 0.0
22/11:00am 30.6 30.8 21.4 58 6.2 E 22 33 12 18 1012.7 - 0.0
22/10:30am 30.1 30.6 21.2 59 6.0 E 20 30 11 16 1012.9 - 0.0
22/10:00am 30.1 30.9 21.7 60 5.7 E 20 28 11 15 1012.9 - 0.0
22/09:30am 30.5 31.5 22.1 61 5.7 ESE 20 32 11 17 1013.1 - 0.0
22/09:00am 29.0 29.4 21.0 62 5.3 E 20 28 11 15 1012.9 1012.8 0.0
22/08:30am 28.4 29.5 21.2 65 4.8 E 17 30 9 16 1013.0 - 0.0
22/08:00am 27.9 30.5 22.6 73 3.6 SSE 13 17 7 9 1012.8 - 0.0
22/07:30am 25.6 28.9 21.9 80 2.5 SSE 7 9 4 5 1012.7 - 0.0
22/07:00am 24.1 28.9 22.2 89 1.3 CALM 0 0 0 0 1012.8 - 0.0
22/06:30am 22.1 26.4 21.1 94 0.7 CALM 0 0 0 0 1012.5 - 0.0
22/06:00am 21.5 25.4 20.3 93 0.8 CALM 0 0 0 0 1012.0 1011.9 0.0
22/05:30am 21.7 25.7 20.5 93 0.8 CALM 0 0 0 0 1011.6 - 0.0
22/05:00am 22.1 26.3 20.9 93 0.8 CALM 0 0 0 0 1011.2 - 0.0
22/04:30am 22.1 26.1 20.6 91 1.0 CALM 0 0 0 0 1010.7 - 0.0
22/04:00am 22.5 26.7 21.0 91 1.0 CALM 0 0 0 0 1010.6 - 0.0
22/03:30am 22.9 27.2 21.2 90 1.1 CALM 0 0 0 0 1010.5 - 0.0
22/03:00am 23.6 28.1 21.5 88 1.4 CALM 0 0 0 0 1010.4 1010.3 0.0
22/02:30am 24.1 28.6 21.6 86 1.7 CALM 0 6 0 3 1010.6 - 0.0
22/02:00am 24.5 28.0 21.8 85 1.8 SSE 6 7 3 4 1010.9 - 0.0
22/01:30am 25.0 28.0 21.9 83 2.1 S 9 11 5 6 1011.1 - 0.0
22/01:00am 25.6 28.7 22.1 81 2.3 SSE 9 13 5 7 1011.2 - 0.0
22/12:30am 25.9 29.0 22.2 80 2.5 SSE 9 13 5 7 1011.3 - 0.0
22/12:00am 26.3 29.5 22.4 79 2.6 SSE 9 13 5 7 1011.5 1011.4 0.0
 
Date/Time
EST
Temp
°C
App
Temp
°C
Dew
Point
Rel
Hum
%
Delta-T
°C
Wind Press
QNH
hPa
Press
MSL
hPa
Rain
since 9 am
mm
Dir
 
Spd
km/h
Gust
km/h
Spd
kts
Gust
kts
21/11:30pm 26.3 29.2 22.4 79 2.6 SSE 11 15 6 8 1011.9 - 0.0
21/11:00pm 26.4 29.3 22.5 79 2.6 SSE 11 15 6 8 1012.1 - 0.0
21/10:30pm 26.5 29.3 22.3 78 2.8 SE 11 17 6 9 1012.3 - 0.0
21/10:00pm 26.5 28.9 22.3 78 2.8 SE 13 17 7 9 1012.4 - 0.0
21/09:30pm 26.6 28.7 22.4 78 2.8 SE 15 20 8 11 1012.1 - 0.0
21/09:00pm 26.6 28.3 22.4 78 2.8 SE 17 20 9 11 1012.0 1011.9 0.0
21/08:30pm 26.8 28.1 22.4 77 3.0 SE 19 24 10 13 1011.8 - 0.0
21/08:00pm 26.8 28.5 22.4 77 3.0 SE 17 24 9 13 1011.6 - 0.0
21/07:30pm 26.9 28.2 22.3 76 3.1 SE 19 28 10 15 1011.2 - 0.0
21/07:00pm 27.3 28.0 22.3 74 3.4 SE 22 30 12 16 1011.0 - 0.0
21/06:30pm 27.4 28.1 22.3 73 3.4 ESE 22 32 12 17 1010.7 - 0.0
21/06:00pm 27.9 28.7 22.4 72 3.7 SE 22 33 12 18 1010.5 1010.4 0.0
21/05:30pm 28.5 29.9 22.5 70 4.1 E 19 28 10 15 1010.2 - 0.0
21/05:00pm 28.9 30.2 22.4 68 4.4 ESE 19 28 10 15 1009.9 - 0.0
21/04:30pm 29.5 30.3 22.5 66 4.8 ESE 22 32 12 17 1009.7 - 0.0
21/04:00pm 29.4 30.4 22.1 65 4.9 E 20 32 11 17 1009.7 - 0.0
21/03:30pm 29.9 31.2 22.6 65 5.0 E 20 33 11 18 1009.8 - 0.0
21/03:00pm 30.5 31.4 22.7 63 5.3 E 22 32 12 17 1010.3 1010.2 0.0
21/02:30pm 30.3 31.3 22.2 62 5.5 E 20 33 11 18 1010.4 - 0.0
21/02:00pm 31.2 32.6 22.8 61 5.8 E 20 30 11 16 1010.7 - 0.0
21/01:30pm 30.6 30.9 22.2 61 5.7 E 24 37 13 20 1011.2 - 0.0
21/01:00pm 30.6 30.7 21.9 59 5.9 E 24 39 13 21 1011.5 - 0.0
21/12:30pm 30.0 29.6 21.7 61 5.6 E 26 37 14 20 1011.9 - 0.0
21/12:00pm 30.4 31.0 22.8 64 5.2 E 24 35 13 19 1012.5 1012.4 0.0
21/11:30am 31.3 31.7 23.1 61 5.6 E 26 35 14 19 1012.8 - 0.0

Other Formats:

Comma delimited format used in spreadsheet applications
http://www.bom.gov.au/fwo/IDQ60801/IDQ60801.94186.axf

JavaScript Object Notation format (JSON) in row-major order
http://www.bom.gov.au/fwo/IDQ60801/IDQ60801.94186.json